LFOC

Châteaudun (BA 279) Airport

Châteaudun, France
TAF LFOC 180800Z 1809/1909 02011KT 9000 NSC TEMPO 1809/1818 03015G25KT PROB40 TEMPO 1902/1907 4000 BR
Issued Valid From Valid To
Oct-18 @ 08:00 UTC
(4 hours ago)
Oct-18 @ 09:00 UTC
(3 hours ago)
Oct-19 @ 09:00 UTC
(in 21 hours)
Oct-18 @ 09:00 to Oct-19 @ 09:00
TAF LFOC 180800Z 1809/1909 02011KT 9000 NSC
Wind Visibility Clouds
20° at 11 knots 8,996 meters
  • No significant clouds
Temporary Oct-18 @ 09:00 to Oct-18 @ 18:00
TEMPO 1809/1818 03015G25KT
Wind
30° at 15 knots
 Gusting to 25 knots
Temporary  (Probability 40%) Oct-19 @ 02:00 to Oct-19 @ 07:00
PROB40 TEMPO 1902/1907 4000 BR
Visibility Conditions
4,007 meters
  • Mist
TAF LFOC 180800Z 1809/1909 02011KT 9000 NSC TEMPO 1809/1818 03015G25KT PROB40 TEMPO 1902/1907 4000 BR
Issued Oct-18 @ 08:00 UTC
(4 hours ago)
Valid From Oct-18 @ 09:00 UTC
(3 hours ago)
Valid To Oct-19 @ 09:00 UTC
(in 21 hours)
Oct-18 @ 09:00 - Oct-19 @ 09:00
Wind Visibility
20° at 11 knots 8,996 meters
Clouds
  • No significant clouds
Temporary Oct-18 @ 09:00 - Oct-18 @ 18:00
Wind
30° at 15 knots
 Gusting to 25 knots
Probability 40% Temporary Oct-19 @ 02:00 - Oct-19 @ 07:00
Conditions
  • Mist